createdAt,value
2023-04-17T00:00:10.057Z,1015.87
2023-04-17T00:01:10.063Z,1015.84
2023-04-17T00:02:10.063Z,1015.85
2023-04-17T00:03:10.135Z,1015.83
2023-04-17T00:04:10.196Z,1015.86
2023-04-17T00:05:10.064Z,1015.83
2023-04-17T00:06:10.019Z,1015.83
2023-04-17T00:07:10.015Z,1015.85
2023-04-17T00:08:10.001Z,1015.84
2023-04-17T00:09:10.290Z,1015.85
2023-04-17T00:10:10.015Z,1015.85
2023-04-17T00:11:09.981Z,1015.87
2023-04-17T00:12:09.976Z,1015.85
2023-04-17T00:13:09.970Z,1015.86
2023-04-17T00:14:09.969Z,1015.85
2023-04-17T00:15:09.952Z,1015.86
2023-04-17T00:16:09.987Z,1015.85
2023-04-17T00:17:09.945Z,1015.79
2023-04-17T00:18:09.931Z,1015.79
2023-04-17T00:19:10.290Z,1015.81
2023-04-17T00:20:09.929Z,1015.79
2023-04-17T00:21:09.921Z,1015.76
2023-04-17T00:22:09.916Z,1015.74
2023-04-17T00:23:09.912Z,1015.78
2023-04-17T00:24:09.901Z,1015.80
2023-04-17T00:25:09.895Z,1015.74
2023-04-17T00:26:09.885Z,1015.79
2023-04-17T00:27:09.873Z,1015.74
2023-04-17T00:28:09.875Z,1015.75
2023-04-17T00:29:10.035Z,1015.76
2023-04-17T00:30:09.857Z,1015.83
2023-04-17T00:31:09.870Z,1015.76
2023-04-17T00:32:09.884Z,1015.77
2023-04-17T00:33:09.841Z,1015.77
2023-04-17T00:34:09.854Z,1015.77
2023-04-17T00:35:09.827Z,1015.80
2023-04-17T00:36:09.819Z,1015.74
2023-04-17T00:37:09.812Z,1015.75
2023-04-17T00:38:09.802Z,1015.73
2023-04-17T00:39:10.093Z,1015.74
2023-04-17T00:40:09.790Z,1015.73
2023-04-17T00:41:09.808Z,1015.71
2023-04-17T00:42:09.778Z,1015.69
2023-04-17T00:43:09.772Z,1015.70
2023-04-17T00:44:09.768Z,1015.72
2023-04-17T00:45:09.763Z,1015.71
2023-04-17T00:46:09.763Z,1015.69
2023-04-17T00:47:09.745Z,1015.65
2023-04-17T00:48:09.736Z,1015.71
2023-04-17T00:49:09.826Z,1015.69
2023-04-17T00:50:09.739Z,1015.67
2023-04-17T00:51:09.722Z,1015.66
2023-04-17T00:52:09.711Z,1015.66
2023-04-17T00:53:09.700Z,1015.66
2023-04-17T00:54:09.690Z,1015.63
2023-04-17T00:55:09.689Z,1015.63
2023-04-17T00:56:09.692Z,1015.64
2023-04-17T00:57:09.691Z,1015.63
2023-04-17T00:58:09.667Z,1015.61
2023-04-17T00:59:09.796Z,1015.59
2023-04-17T01:00:09.665Z,1015.60
2023-04-17T01:01:09.653Z,1015.59
2023-04-17T01:02:09.742Z,1015.57
2023-04-17T01:03:09.848Z,1015.60
2023-04-17T01:04:09.721Z,1015.62
2023-04-17T01:05:09.617Z,1015.62
2023-04-17T01:06:09.616Z,1015.61
2023-04-17T01:07:09.606Z,1015.64
2023-04-17T01:08:09.601Z,1015.65
2023-04-17T01:09:09.674Z,1015.67
2023-04-17T01:10:09.583Z,1015.62
2023-04-17T01:11:09.580Z,1015.60
2023-04-17T01:12:09.579Z,1015.61
2023-04-17T01:13:09.569Z,1015.62
2023-04-17T01:14:09.560Z,1015.62
2023-04-17T01:15:09.549Z,1015.62
2023-04-17T01:16:09.550Z,1015.57
2023-04-17T01:17:09.575Z,1015.60
2023-04-17T01:18:09.576Z,1015.60
2023-04-17T01:19:09.607Z,1015.57
2023-04-17T01:20:09.518Z,1015.56
2023-04-17T01:21:09.510Z,1015.59
2023-04-17T01:22:09.505Z,1015.60
2023-04-17T01:23:09.496Z,1015.60
2023-04-17T01:24:09.498Z,1015.60
2023-04-17T01:25:09.473Z,1015.59
2023-04-17T01:26:09.477Z,1015.61
2023-04-17T01:27:09.486Z,1015.60
2023-04-17T01:28:09.466Z,1015.61
2023-04-17T01:29:09.500Z,1015.60
2023-04-17T01:30:09.447Z,1015.61
2023-04-17T01:31:09.500Z,1015.60
2023-04-17T01:32:09.436Z,1015.59
2023-04-17T01:33:09.439Z,1015.61
2023-04-17T01:34:09.432Z,1015.60
2023-04-17T01:35:09.427Z,1015.63
2023-04-17T01:36:09.416Z,1015.61
2023-04-17T01:37:09.436Z,1015.66
2023-04-17T01:38:09.397Z,1015.62
2023-04-17T01:39:09.517Z,1015.70
2023-04-17T01:40:09.393Z,1015.65
2023-04-17T01:41:09.382Z,1015.62
2023-04-17T01:42:09.382Z,1015.61
2023-04-17T01:43:09.365Z,1015.61
2023-04-17T01:44:09.356Z,1015.62
2023-04-17T01:45:09.349Z,1015.63
2023-04-17T01:46:09.369Z,1015.61
2023-04-17T01:47:09.332Z,1015.57
2023-04-17T01:48:09.349Z,1015.62
2023-04-17T01:49:09.379Z,1015.60
2023-04-17T01:50:09.389Z,1015.61
2023-04-17T01:51:09.328Z,1015.64
2023-04-17T01:52:09.306Z,1015.60
2023-04-17T01:53:09.296Z,1015.61
2023-04-17T01:54:09.289Z,1015.61
2023-04-17T01:55:09.280Z,1015.62
2023-04-17T01:56:09.275Z,1015.61
2023-04-17T01:57:09.264Z,1015.59
2023-04-17T01:58:09.258Z,1015.63
2023-04-17T01:59:09.380Z,1015.61
2023-04-17T02:00:09.245Z,1015.63
2023-04-17T02:01:09.240Z,1015.64
2023-04-17T02:02:09.319Z,1015.60
2023-04-17T02:03:09.327Z,1015.63
2023-04-17T02:04:09.371Z,1015.57
2023-04-17T02:05:09.218Z,1015.57
2023-04-17T02:06:09.210Z,1015.57
2023-04-17T02:07:09.232Z,1015.56
2023-04-17T02:08:09.215Z,1015.59
2023-04-17T02:09:09.309Z,1015.55
2023-04-17T02:10:09.184Z,1015.58
2023-04-17T02:11:09.173Z,1015.53
2023-04-17T02:12:09.167Z,1015.55
2023-04-17T02:13:09.161Z,1015.56
2023-04-17T02:14:09.146Z,1015.55
2023-04-17T02:15:09.162Z,1015.52
2023-04-17T02:16:09.170Z,1015.54
2023-04-17T02:17:09.132Z,1015.55
2023-04-17T02:18:09.184Z,1015.58
2023-04-17T02:19:09.291Z,1015.57
2023-04-17T02:20:09.137Z,1015.59
2023-04-17T02:21:09.102Z,1015.62
2023-04-17T02:22:09.103Z,1015.59
2023-04-17T02:23:09.093Z,1015.62
2023-04-17T02:24:09.084Z,1015.61
2023-04-17T02:25:09.074Z,1015.60
2023-04-17T02:26:09.070Z,1015.61
2023-04-17T02:27:09.068Z,1015.61
2023-04-17T02:28:09.058Z,1015.57
2023-04-17T02:29:09.137Z,1015.58
2023-04-17T02:30:09.043Z,1015.57
2023-04-17T02:31:09.109Z,1015.61
2023-04-17T02:32:09.024Z,1015.65
2023-04-17T02:33:09.065Z,1015.59
2023-04-17T02:34:09.011Z,1015.55
2023-04-17T02:35:09.026Z,1015.55
2023-04-17T02:36:09.003Z,1015.59
2023-04-17T02:37:08.993Z,1015.56
2023-04-17T02:38:08.986Z,1015.54
2023-04-17T02:39:09.065Z,1015.51
2023-04-17T02:40:08.977Z,1015.48
2023-04-17T02:41:08.968Z,1015.50
2023-04-17T02:42:08.959Z,1015.52
2023-04-17T02:43:08.956Z,1015.49
2023-04-17T02:44:08.945Z,1015.53
2023-04-17T02:45:08.946Z,1015.48
2023-04-17T02:46:08.980Z,1015.51
2023-04-17T02:47:08.944Z,1015.48
2023-04-17T02:48:08.925Z,1015.51
2023-04-17T02:49:09.004Z,1015.49
2023-04-17T02:50:08.909Z,1015.52
2023-04-17T02:51:08.903Z,1015.53
2023-04-17T02:52:08.893Z,1015.49
2023-04-17T02:53:08.903Z,1015.50
2023-04-17T02:54:08.886Z,1015.53
2023-04-17T02:55:08.872Z,1015.50
2023-04-17T02:56:08.876Z,1015.54
2023-04-17T02:57:08.861Z,1015.50
2023-04-17T02:58:08.860Z,1015.50
2023-04-17T02:59:08.910Z,1015.50
2023-04-17T03:00:08.841Z,1015.52
2023-04-17T03:01:08.857Z,1015.48
2023-04-17T03:02:08.945Z,1015.49
2023-04-17T03:03:08.919Z,1015.48
2023-04-17T03:04:08.860Z,1015.45
2023-04-17T03:05:08.817Z,1015.46
2023-04-17T03:06:08.803Z,1015.48
2023-04-17T03:07:08.789Z,1015.46
2023-04-17T03:08:08.782Z,1015.43
2023-04-17T03:09:08.802Z,1015.44
2023-04-17T03:10:08.781Z,1015.46
2023-04-17T03:11:08.778Z,1015.45
2023-04-17T03:12:08.758Z,1015.47
2023-04-17T03:13:08.752Z,1015.46
2023-04-17T03:14:08.749Z,1015.46
2023-04-17T03:15:09.055Z,1015.44
2023-04-17T03:16:08.742Z,1015.49
2023-04-17T03:17:08.726Z,1015.50
2023-04-17T03:18:08.794Z,1015.50
2023-04-17T03:19:08.723Z,1015.50
2023-04-17T03:20:08.709Z,1015.55
2023-04-17T03:21:08.700Z,1015.51
2023-04-17T03:22:08.696Z,1015.50
2023-04-17T03:23:08.682Z,1015.50
2023-04-17T03:24:08.675Z,1015.52
2023-04-17T03:25:08.678Z,1015.53
2023-04-17T03:26:08.682Z,1015.52
2023-04-17T03:27:08.656Z,1015.51
2023-04-17T03:28:08.650Z,1015.50
2023-04-17T03:29:08.641Z,1015.50
2023-04-17T03:30:08.656Z,1015.48
2023-04-17T03:31:08.633Z,1015.49
2023-04-17T03:32:08.642Z,1015.53
2023-04-17T03:33:08.614Z,1015.50
2023-04-17T03:34:08.613Z,1015.52
2023-04-17T03:35:08.596Z,1015.53
2023-04-17T03:36:08.594Z,1015.55
2023-04-17T03:37:08.583Z,1015.55
2023-04-17T03:38:08.585Z,1015.58
2023-04-17T03:39:08.586Z,1015.56
2023-04-17T03:40:08.570Z,1015.54
2023-04-17T03:41:08.560Z,1015.58
2023-04-17T03:42:08.558Z,1015.59
2023-04-17T03:43:08.541Z,1015.60
2023-04-17T03:44:08.533Z,1015.60
2023-04-17T03:45:08.529Z,1015.58
2023-04-17T03:46:08.593Z,1015.58
2023-04-17T03:47:08.513Z,1015.58
2023-04-17T03:48:08.523Z,1015.61
2023-04-17T03:49:08.501Z,1015.55
2023-04-17T03:50:08.496Z,1015.58
2023-04-17T03:51:08.485Z,1015.60
2023-04-17T03:52:08.484Z,1015.58
2023-04-17T03:53:08.478Z,1015.60
2023-04-17T03:54:08.465Z,1015.61
2023-04-17T03:55:08.466Z,1015.53
2023-04-17T03:56:08.450Z,1015.57
2023-04-17T03:57:08.447Z,1015.61
2023-04-17T03:58:08.451Z,1015.61
2023-04-17T03:59:08.432Z,1015.61
2023-04-17T04:00:08.443Z,1015.57
2023-04-17T04:01:08.416Z,1015.58
2023-04-17T04:02:08.439Z,1015.58
2023-04-17T04:03:08.503Z,1015.62
2023-04-17T04:04:08.535Z,1015.63
2023-04-17T04:05:08.432Z,1015.63
2023-04-17T04:06:08.387Z,1015.62
2023-04-17T04:07:08.376Z,1015.64
2023-04-17T04:08:08.378Z,1015.63
2023-04-17T04:09:08.356Z,1015.64
2023-04-17T04:10:08.353Z,1015.62
2023-04-17T04:11:08.347Z,1015.57
2023-04-17T04:12:08.347Z,1015.58
2023-04-17T04:13:08.328Z,1015.59
2023-04-17T04:14:08.327Z,1015.60
2023-04-17T04:15:08.316Z,1015.55
2023-04-17T04:16:08.350Z,1015.56
2023-04-17T04:17:08.303Z,1015.58
2023-04-17T04:18:08.319Z,1015.59
2023-04-17T04:19:08.288Z,1015.59
2023-04-17T04:20:08.295Z,1015.57
2023-04-17T04:21:08.278Z,1015.55
2023-04-17T04:22:08.286Z,1015.57
2023-04-17T04:23:08.273Z,1015.57
2023-04-17T04:24:08.256Z,1015.55
2023-04-17T04:25:08.250Z,1015.56
2023-04-17T04:26:08.250Z,1015.56
2023-04-17T04:27:08.241Z,1015.59
2023-04-17T04:28:08.233Z,1015.60
2023-04-17T04:29:08.221Z,1015.63
2023-04-17T04:30:08.222Z,1015.63
2023-04-17T04:31:08.273Z,1015.63
2023-04-17T04:32:08.210Z,1015.65
2023-04-17T04:33:08.320Z,1015.67
2023-04-17T04:34:08.195Z,1015.66
2023-04-17T04:35:08.185Z,1015.71
2023-04-17T04:36:08.193Z,1015.69
2023-04-17T04:37:08.181Z,1015.71
2023-04-17T04:38:09.473Z,1015.69
2023-04-17T04:39:08.154Z,1015.72
2023-04-17T04:40:08.153Z,1015.72
2023-04-17T04:41:08.145Z,1015.75
2023-04-17T04:42:08.138Z,1015.74
2023-04-17T04:43:08.133Z,1015.73
2023-04-17T04:44:08.139Z,1015.71
2023-04-17T04:45:08.122Z,1015.73
2023-04-17T04:46:08.114Z,1015.74
2023-04-17T04:47:08.132Z,1015.74
2023-04-17T04:48:08.177Z,1015.75
2023-04-17T04:49:08.093Z,1015.73
2023-04-17T04:50:08.089Z,1015.76
2023-04-17T04:51:08.088Z,1015.77
2023-04-17T04:52:08.076Z,1015.73
2023-04-17T04:53:08.072Z,1015.76
2023-04-17T04:54:08.063Z,1015.79
2023-04-17T04:55:08.053Z,1015.78
2023-04-17T04:56:08.054Z,1015.75
2023-04-17T04:57:08.040Z,1015.80
2023-04-17T04:58:08.034Z,1015.81
2023-04-17T04:59:08.030Z,1015.82
2023-04-17T05:00:08.024Z,1015.81
2023-04-17T05:01:08.077Z,1015.80
2023-04-17T05:02:08.072Z,1015.81
2023-04-17T05:03:08.285Z,1015.85
2023-04-17T05:04:08.136Z,1015.82
2023-04-17T05:05:08.116Z,1015.86
2023-04-17T05:06:07.988Z,1015.85
2023-04-17T05:07:07.994Z,1015.88
2023-04-17T05:08:08.026Z,1015.86
2023-04-17T05:09:07.966Z,1015.85
2023-04-17T05:10:07.968Z,1015.86
2023-04-17T05:11:07.978Z,1015.89
2023-04-17T05:12:07.944Z,1015.90
2023-04-17T05:13:07.949Z,1015.92
2023-04-17T05:14:07.934Z,1015.91
2023-04-17T05:15:07.930Z,1015.92
2023-04-17T05:16:07.957Z,1015.91
2023-04-17T05:17:07.938Z,1015.94
2023-04-17T05:18:07.923Z,1015.97
2023-04-17T05:19:07.904Z,1015.92
2023-04-17T05:20:07.897Z,1015.96
2023-04-17T05:21:07.891Z,1015.92
2023-04-17T05:22:07.898Z,1015.92
2023-04-17T05:23:07.876Z,1015.97
2023-04-17T05:24:07.880Z,1015.97
2023-04-17T05:25:07.859Z,1015.96
2023-04-17T05:26:07.892Z,1015.95
2023-04-17T05:27:07.850Z,1015.95
2023-04-17T05:28:07.838Z,1016.01
2023-04-17T05:29:07.836Z,1016.00
2023-04-17T05:30:07.837Z,1015.99
2023-04-17T05:31:07.841Z,1016.00
2023-04-17T05:32:08.009Z,1015.99
2023-04-17T05:33:07.876Z,1016.02
2023-04-17T05:34:07.814Z,1016.01
2023-04-17T05:35:07.795Z,1016.00
2023-04-17T05:36:07.790Z,1016.02
2023-04-17T05:37:07.784Z,1016.02
2023-04-17T05:38:07.774Z,1016.07
2023-04-17T05:39:07.773Z,1016.05
2023-04-17T05:40:07.761Z,1016.05
2023-04-17T05:41:07.750Z,1016.08
2023-04-17T05:42:07.751Z,1016.07
2023-04-17T05:43:07.738Z,1016.10
2023-04-17T05:44:07.733Z,1016.07
2023-04-17T05:45:07.745Z,1016.12
2023-04-17T05:46:07.833Z,1016.07
2023-04-17T05:47:07.706Z,1016.11
2023-04-17T05:48:07.713Z,1016.10
2023-04-17T05:49:07.714Z,1016.05
2023-04-17T05:50:07.690Z,1016.06
2023-04-17T05:51:07.681Z,1016.09
2023-04-17T05:52:07.686Z,1016.09
2023-04-17T05:53:07.680Z,1016.07
2023-04-17T05:54:07.669Z,1016.08
2023-04-17T05:55:07.655Z,1016.10
2023-04-17T05:56:07.650Z,1016.08
2023-04-17T05:57:07.667Z,1016.08
2023-04-17T05:58:22.131Z,1016.07
2023-04-17T05:59:07.641Z,1016.12
2023-04-17T06:00:07.633Z,1016.07
2023-04-17T06:01:07.627Z,1016.10
2023-04-17T06:02:07.861Z,1016.09
2023-04-17T06:03:07.916Z,1016.09
2023-04-17T06:04:07.831Z,1016.13
2023-04-17T06:05:07.862Z,1016.12
2023-04-17T06:06:07.579Z,1016.10
2023-04-17T06:07:07.588Z,1016.16
2023-04-17T06:08:07.571Z,1016.14
2023-04-17T06:09:07.562Z,1016.15
2023-04-17T06:10:07.558Z,1016.17
2023-04-17T06:11:07.550Z,1016.18
2023-04-17T06:12:07.553Z,1016.20
2023-04-17T06:13:07.534Z,1016.23
2023-04-17T06:14:07.532Z,1016.22
2023-04-17T06:15:08.991Z,1016.22
2023-04-17T06:16:07.516Z,1016.26
2023-04-17T06:17:07.564Z,1016.27
2023-04-17T06:18:07.574Z,1016.25
2023-04-17T06:19:07.500Z,1016.27
2023-04-17T06:20:07.494Z,1016.22
2023-04-17T06:21:07.481Z,1016.23
2023-04-17T06:22:07.471Z,1016.25
2023-04-17T06:23:07.473Z,1016.27
2023-04-17T06:24:07.456Z,1016.28
2023-04-17T06:25:07.459Z,1016.27
2023-04-17T06:26:07.445Z,1016.26
2023-04-17T06:27:07.444Z,1016.30
2023-04-17T06:28:07.431Z,1016.30
2023-04-17T06:29:07.426Z,1016.34
2023-04-17T06:30:07.425Z,1016.29
2023-04-17T06:31:07.425Z,1016.27
2023-04-17T06:32:07.410Z,1016.29
2023-04-17T06:33:07.447Z,1016.32
2023-04-17T06:34:07.512Z,1016.30
2023-04-17T06:35:07.386Z,1016.31
2023-04-17T06:36:07.380Z,1016.39
2023-04-17T06:37:07.380Z,1016.37
2023-04-17T06:38:07.370Z,1016.35
2023-04-17T06:39:07.380Z,1016.35
2023-04-17T06:40:07.384Z,1016.36
2023-04-17T06:41:07.354Z,1016.36
2023-04-17T06:42:07.345Z,1016.36
2023-04-17T06:43:07.345Z,1016.38
2023-04-17T06:44:07.335Z,1016.37
2023-04-17T06:45:07.331Z,1016.39
2023-04-17T06:46:07.313Z,1016.39
2023-04-17T06:47:07.316Z,1016.42
2023-04-17T06:48:07.304Z,1016.47
2023-04-17T06:49:07.326Z,1016.40
2023-04-17T06:50:07.291Z,1016.46
2023-04-17T06:51:07.305Z,1016.44
2023-04-17T06:52:07.278Z,1016.45
2023-04-17T06:53:07.269Z,1016.46
2023-04-17T06:54:07.258Z,1016.47
2023-04-17T06:55:07.276Z,1016.49
2023-04-17T06:56:07.259Z,1016.49
2023-04-17T06:57:07.242Z,1016.51
2023-04-17T06:58:07.235Z,1016.51
2023-04-17T06:59:07.230Z,1016.48
2023-04-17T07:00:07.223Z,1016.52
2023-04-17T07:01:07.233Z,1016.52
2023-04-17T07:02:07.230Z,1016.53
2023-04-17T07:03:07.270Z,1016.54
2023-04-17T07:04:07.306Z,1016.55
2023-04-17T07:05:07.199Z,1016.57
2023-04-17T07:06:07.177Z,1016.54
2023-04-17T07:07:07.173Z,1016.54
2023-04-17T07:08:07.183Z,1016.55
2023-04-17T07:09:07.176Z,1016.58
2023-04-17T07:10:07.161Z,1016.59
2023-04-17T07:11:07.156Z,1016.59
2023-04-17T07:12:07.138Z,1016.63
2023-04-17T07:13:07.141Z,1016.65
2023-04-17T07:14:07.123Z,1016.65
2023-04-17T07:15:07.138Z,1016.66
2023-04-17T07:16:07.131Z,1016.66
2023-04-17T07:17:07.101Z,1016.67
2023-04-17T07:18:07.117Z,1016.71
2023-04-17T07:19:07.093Z,1016.71
2023-04-17T07:20:07.092Z,1016.72
2023-04-17T07:21:07.076Z,1016.76
2023-04-17T07:22:07.070Z,1016.74
2023-04-17T07:23:07.077Z,1016.75
2023-04-17T07:24:07.070Z,1016.75
2023-04-17T07:25:07.066Z,1016.77
2023-04-17T07:26:07.040Z,1016.77
2023-04-17T07:27:07.034Z,1016.74
2023-04-17T07:28:07.045Z,1016.75
2023-04-17T07:29:07.021Z,1016.81
2023-04-17T07:30:07.016Z,1016.75
2023-04-17T07:31:07.031Z,1016.80
2023-04-17T07:32:07.011Z,1016.80
2023-04-17T07:33:07.077Z,1016.83
2023-04-17T07:34:06.986Z,1016.85
2023-04-17T07:35:06.993Z,1016.89
2023-04-17T07:36:06.976Z,1016.88
2023-04-17T07:37:06.984Z,1016.90
2023-04-17T07:38:07.000Z,1016.90
2023-04-17T07:39:06.963Z,1016.93
2023-04-17T07:40:06.949Z,1016.92
2023-04-17T07:41:06.944Z,1016.94
2023-04-17T07:42:06.936Z,1016.93
2023-04-17T07:43:06.928Z,1016.95
2023-04-17T07:44:06.932Z,1016.94
2023-04-17T07:45:06.913Z,1016.96
2023-04-17T07:46:06.913Z,1016.97
2023-04-17T07:47:07.066Z,1016.98
2023-04-17T07:48:06.996Z,1016.99
2023-04-17T07:49:06.897Z,1017.00
2023-04-17T07:50:06.878Z,1017.03
2023-04-17T07:51:06.875Z,1017.00
2023-04-17T07:52:06.869Z,1016.99
2023-04-17T07:53:06.863Z,1017.02
2023-04-17T07:54:06.854Z,1017.06
2023-04-17T07:55:06.856Z,1017.08
2023-04-17T07:56:06.847Z,1017.06
2023-04-17T07:57:06.837Z,1017.00
2023-04-17T07:58:06.831Z,1017.08
2023-04-17T07:59:06.814Z,1017.06
2023-04-17T08:00:06.823Z,1017.09
2023-04-17T08:01:06.815Z,1017.08
2023-04-17T08:02:06.877Z,1017.05
2023-04-17T08:03:06.962Z,1017.06
2023-04-17T08:04:06.984Z,1017.02
2023-04-17T08:05:06.952Z,1017.03
2023-04-17T08:06:06.782Z,1017.04
2023-04-17T08:07:06.775Z,1017.02
2023-04-17T08:08:06.765Z,1017.05
2023-04-17T08:09:06.759Z,1017.03
2023-04-17T08:10:06.768Z,1017.10
2023-04-17T08:11:06.756Z,1017.12
2023-04-17T08:12:06.744Z,1017.09
2023-04-17T08:13:06.738Z,1017.06
2023-04-17T08:14:06.754Z,1017.07
2023-04-17T08:15:06.732Z,1017.07
2023-04-17T08:16:06.723Z,1017.09
2023-04-17T08:17:06.744Z,1017.06
2023-04-17T08:18:06.745Z,1017.13
2023-04-17T08:19:06.699Z,1017.12
2023-04-17T08:20:06.702Z,1017.13
2023-04-17T08:21:06.690Z,1017.10
2023-04-17T08:22:06.696Z,1017.12
2023-04-17T08:23:06.683Z,1017.15
2023-04-17T08:24:06.678Z,1017.13
2023-04-17T08:25:06.667Z,1017.15
2023-04-17T08:26:06.659Z,1017.15
2023-04-17T08:27:06.655Z,1017.20
2023-04-17T08:28:06.652Z,1017.19
2023-04-17T08:29:06.657Z,1017.19
2023-04-17T08:30:06.641Z,1017.17
2023-04-17T08:31:06.674Z,1017.17
2023-04-17T08:32:14.634Z,1017.20
2023-04-17T08:33:06.639Z,1017.21
2023-04-17T08:34:14.303Z,1017.14
2023-04-17T08:35:06.620Z,1017.16
2023-04-17T08:36:08.606Z,1017.21
2023-04-17T08:37:06.605Z,1017.14
2023-04-17T08:38:06.592Z,1017.18
2023-04-17T08:39:06.587Z,1017.17
2023-04-17T08:40:06.580Z,1017.14
2023-04-17T08:41:06.578Z,1017.14
2023-04-17T08:42:06.569Z,1017.15
2023-04-17T08:43:06.568Z,1017.17
2023-04-17T08:44:06.562Z,1017.22
2023-04-17T08:45:06.568Z,1017.20
2023-04-17T08:46:06.587Z,1017.18
2023-04-17T08:47:06.546Z,1017.19
2023-04-17T08:48:06.580Z,1017.19
2023-04-17T08:49:06.539Z,1017.18
2023-04-17T08:50:06.544Z,1017.16
2023-04-17T08:51:06.530Z,1017.19
2023-04-17T08:52:06.512Z,1017.17
2023-04-17T08:53:06.522Z,1017.20
2023-04-17T08:54:06.494Z,1017.22
2023-04-17T08:55:06.505Z,1017.20
2023-04-17T08:56:08.816Z,1017.23
2023-04-17T08:57:06.498Z,1017.20
2023-04-17T08:58:06.475Z,1017.19
2023-04-17T08:59:06.490Z,1017.15
2023-04-17T09:00:06.472Z,1017.17
2023-04-17T09:01:06.477Z,1017.18
2023-04-17T09:02:06.659Z,1017.20
2023-04-17T09:03:06.645Z,1017.18
2023-04-17T09:04:06.701Z,1017.17
2023-04-17T09:05:06.513Z,1017.21
2023-04-17T09:06:06.445Z,1017.18
2023-04-17T09:07:06.444Z,1017.17
2023-04-17T09:08:06.433Z,1017.17
2023-04-17T09:09:06.423Z,1017.15
2023-04-17T09:10:06.425Z,1017.15
2023-04-17T09:11:06.416Z,1017.09
2023-04-17T09:12:06.407Z,1017.10
2023-04-17T09:13:06.410Z,1017.10
2023-04-17T09:14:06.395Z,1017.09
2023-04-17T09:15:06.392Z,1017.13
2023-04-17T09:16:06.482Z,1017.11
2023-04-17T09:17:06.399Z,1017.07
2023-04-17T09:18:06.403Z,1017.07
2023-04-17T09:19:06.376Z,1017.13
2023-04-17T09:20:06.397Z,1017.09
2023-04-17T09:21:06.364Z,1017.08
2023-04-17T09:22:06.354Z,1017.14
2023-04-17T09:23:06.346Z,1017.16
2023-04-17T09:24:06.356Z,1017.13
2023-04-17T09:25:06.344Z,1017.12
2023-04-17T09:26:06.334Z,1017.08
2023-04-17T09:27:06.338Z,1017.09
2023-04-17T09:28:06.327Z,1017.09
2023-04-17T09:29:06.320Z,1017.11
2023-04-17T09:30:06.329Z,1017.11
2023-04-17T09:31:06.368Z,1017.13
2023-04-17T09:32:06.455Z,1017.10
2023-04-17T09:33:06.325Z,1017.13
2023-04-17T09:34:06.294Z,1017.11
2023-04-17T09:35:06.287Z,1017.11
2023-04-17T09:36:06.285Z,1017.02
2023-04-17T09:37:06.287Z,1017.03
2023-04-17T09:38:06.276Z,1017.00
2023-04-17T09:39:06.273Z,1017.01
2023-04-17T09:40:06.273Z,1017.06
2023-04-17T09:41:06.269Z,1017.09
2023-04-17T09:42:06.308Z,1017.05
2023-04-17T09:43:08.151Z,1017.06
2023-04-17T09:44:06.245Z,1017.09
2023-04-17T09:45:06.243Z,1017.14
2023-04-17T09:46:06.311Z,1017.18
2023-04-17T09:47:06.254Z,1017.17
2023-04-17T09:48:06.309Z,1017.15
2023-04-17T09:49:06.230Z,1017.18
2023-04-17T09:50:06.218Z,1017.19
2023-04-17T09:51:06.215Z,1017.17
2023-04-17T09:52:06.210Z,1017.20
2023-04-17T09:53:06.203Z,1017.15
2023-04-17T09:54:06.194Z,1017.28
2023-04-17T09:55:06.198Z,1017.13
2023-04-17T09:56:06.195Z,1017.08
2023-04-17T09:57:06.173Z,1017.11
2023-04-17T09:58:06.219Z,1017.20
2023-04-17T09:59:06.174Z,1017.08
2023-04-17T10:00:06.170Z,1017.08
2023-04-17T10:01:06.200Z,1017.10
2023-04-17T10:02:06.236Z,1017.14
2023-04-17T10:03:06.232Z,1017.21
2023-04-17T10:04:06.205Z,1017.11
2023-04-17T10:05:06.141Z,1017.03
2023-04-17T10:06:06.147Z,1017.02
2023-04-17T10:07:06.132Z,1017.17
2023-04-17T10:08:06.132Z,1017.21
2023-04-17T10:09:06.152Z,1017.14
2023-04-17T10:10:06.126Z,1017.08
2023-04-17T10:11:06.110Z,1017.09
2023-04-17T10:12:06.116Z,1017.11
2023-04-17T10:13:06.121Z,1017.01
2023-04-17T10:14:06.109Z,1017.10
2023-04-17T10:15:06.107Z,1017.07
2023-04-17T10:16:06.143Z,1017.08
2023-04-17T10:17:06.094Z,1016.98
2023-04-17T10:18:06.176Z,1017.03
2023-04-17T10:19:06.086Z,1017.03
2023-04-17T10:20:06.079Z,1017.04
2023-04-17T10:21:06.607Z,1017.01
2023-04-17T10:22:06.092Z,1017.13
2023-04-17T10:23:06.075Z,1017.10
2023-04-17T10:24:06.076Z,1017.10
2023-04-17T10:25:06.071Z,1017.05
2023-04-17T10:26:06.069Z,1016.86
2023-04-17T10:27:07.722Z,1016.86
2023-04-17T10:28:06.060Z,1016.87
2023-04-17T10:29:06.079Z,1016.88
2023-04-17T10:30:06.072Z,1016.89
2023-04-17T10:31:06.066Z,1016.88
2023-04-17T10:32:06.136Z,1016.88
2023-04-17T10:33:07.592Z,1016.84
2023-04-17T10:34:06.058Z,1016.87
2023-04-17T10:35:06.052Z,1016.86
2023-04-17T10:36:06.054Z,1016.87
2023-04-17T10:37:06.054Z,1016.84
2023-04-17T10:38:06.042Z,1016.84
2023-04-17T10:39:06.034Z,1016.77
2023-04-17T10:40:06.039Z,1016.77
2023-04-17T10:41:06.029Z,1016.77
2023-04-17T10:42:06.065Z,1016.75
2023-04-17T10:43:06.031Z,1016.73
2023-04-17T10:44:06.016Z,1016.71
2023-04-17T10:45:06.010Z,1016.86
2023-04-17T10:46:06.090Z,1016.73
2023-04-17T10:47:06.004Z,1016.73
2023-04-17T10:48:06.067Z,1016.91
2023-04-17T10:49:05.997Z,1016.91
2023-04-17T10:50:06.030Z,1016.87
2023-04-17T10:51:05.989Z,1016.94
2023-04-17T10:52:05.992Z,1016.86
2023-04-17T10:53:05.986Z,1016.65
2023-04-17T10:54:05.983Z,1016.68
2023-04-17T10:55:05.983Z,1016.72
2023-04-17T10:56:05.974Z,1016.78
2023-04-17T10:57:05.981Z,1016.73
2023-04-17T10:58:05.971Z,1016.76
2023-04-17T10:59:05.967Z,1016.69
2023-04-17T11:00:05.980Z,1016.83
2023-04-17T11:01:06.016Z,1016.70
2023-04-17T11:02:06.038Z,1016.66
2023-04-17T11:03:06.063Z,1016.67
2023-04-17T11:04:05.981Z,1016.61
2023-04-17T11:05:06.119Z,1016.61
2023-04-17T11:06:05.952Z,1016.65
2023-04-17T11:07:05.959Z,1016.70
2023-04-17T11:08:05.948Z,1016.76
2023-04-17T11:09:05.942Z,1016.78
2023-04-17T11:10:05.937Z,1016.72
2023-04-17T11:11:05.932Z,1016.70
2023-04-17T11:12:05.927Z,1016.73
2023-04-17T11:13:05.938Z,1016.64
2023-04-17T11:14:05.936Z,1016.59
2023-04-17T11:15:05.918Z,1016.52
2023-04-17T11:16:05.915Z,1016.67
2023-04-17T11:17:05.944Z,1016.71
2023-04-17T11:18:05.944Z,1016.66
2023-04-17T11:19:05.907Z,1016.60
2023-04-17T11:20:05.910Z,1016.56
2023-04-17T11:21:05.902Z,1016.67
2023-04-17T11:22:05.913Z,1016.59
2023-04-17T11:23:05.904Z,1016.56
2023-04-17T11:24:05.938Z,1016.59
2023-04-17T11:25:05.903Z,1016.59
2023-04-17T11:26:05.900Z,1016.56
2023-04-17T11:27:05.893Z,1016.66
2023-04-17T11:28:05.954Z,1016.67
2023-04-17T11:29:05.885Z,1016.64
2023-04-17T11:30:05.881Z,1016.58
2023-04-17T11:31:05.908Z,1016.60
2023-04-17T11:32:05.874Z,1016.70
2023-04-17T11:33:05.920Z,1016.53
2023-04-17T11:34:05.874Z,1016.56
2023-04-17T11:35:05.862Z,1016.50
2023-04-17T11:36:05.864Z,1016.54
2023-04-17T11:37:05.863Z,1016.48
2023-04-17T11:38:05.866Z,1016.51
2023-04-17T11:39:05.855Z,1016.55
2023-04-17T11:40:05.843Z,1016.54
2023-04-17T11:41:05.867Z,1016.53
2023-04-17T11:42:05.860Z,1016.49
2023-04-17T11:43:05.844Z,1016.49
2023-04-17T11:44:05.836Z,1016.46
2023-04-17T11:45:05.843Z,1016.49
2023-04-17T11:46:05.852Z,1016.43
2023-04-17T11:47:05.833Z,1016.48
2023-04-17T11:48:05.853Z,1016.48
2023-04-17T11:49:05.826Z,1016.46
2023-04-17T11:50:05.814Z,1016.49
2023-04-17T11:51:05.814Z,1016.50
2023-04-17T11:52:05.825Z,1016.51
2023-04-17T11:53:05.813Z,1016.52
2023-04-17T11:54:05.801Z,1016.49
2023-04-17T11:55:05.799Z,1016.50
2023-04-17T11:56:05.790Z,1016.49
2023-04-17T11:57:05.786Z,1016.47
2023-04-17T11:58:05.787Z,1016.50
2023-04-17T11:59:05.781Z,1016.49
2023-04-17T12:00:05.777Z,1016.51
2023-04-17T12:01:05.770Z,1016.53
2023-04-17T12:02:05.791Z,1016.53
2023-04-17T12:03:05.842Z,1016.54
2023-04-17T12:04:05.868Z,1016.51
2023-04-17T12:05:05.895Z,1016.49